Time;durP1;ratioP1;P1;durP2;ratioP2;P2;SDS_P1;SDS_P2;PMS_P1;PMS_P2;Temp;Humidity;BMP_temperature;BMP_pressure;BME280_temperature;BME280_humidity;BME280_pressure;Samples;Min_cycle;Max_cycle;Signal;HPM_P1;HPM_P2
2021/11/07 00:00:26;;;;;;;58.27;31.13;;;;;;;6.74;64.74;101835.06;126112;1100;104220;-78
2021/11/07 00:03:18;;;;;;;65.63;32.37;;;;;;;6.65;64.72;101823.95;126341;1099;104152;-78
2021/11/07 00:05:56;;;;;;;62.63;32.30;;;;;;;6.59;64.70;101818.30;126260;1099;104283;-78
2021/11/07 00:08:38;;;;;;;63.77;34.10;;;;;;;6.63;64.80;101805.59;126299;1099;104238;-79
2021/11/07 00:11:19;;;;;;;61.90;33.35;;;;;;;6.69;65.04;101806.85;126324;1099;104146;-78
2021/11/07 00:13:51;;;;;;;59.27;31.80;;;;;;;6.68;65.15;101812.85;126322;1099;104198;-79
2021/11/07 00:16:26;;;;;;;64.40;34.37;;;;;;;6.66;64.98;101800.59;126334;1099;104149;-79
2021/11/07 00:19:06;;;;;;;67.23;34.43;;;;;;;6.66;64.89;101800.59;126277;1099;104184;-79
2021/11/07 00:21:45;;;;;;;68.40;34.45;;;;;;;6.61;64.97;101798.47;126348;1099;104162;-78
2021/11/07 00:24:20;;;;;;;63.45;33.35;;;;;;;6.60;65.20;101796.65;126305;1099;104396;-78
2021/11/07 00:26:56;;;;;;;61.90;32.27;;;;;;;6.62;65.38;101795.98;126281;1099;104190;-78
2021/11/07 00:29:30;;;;;;;62.90;31.03;;;;;;;6.63;65.20;101795.16;126268;1099;104147;-78
2021/11/07 00:32:08;;;;;;;61.55;31.00;;;;;;;6.62;65.11;101792.44;126295;1099;104249;-79
2021/11/07 00:37:29;;;;;;;62.57;32.60;;;;;;;6.71;65.24;101782.67;126235;1099;104249;-78
2021/11/07 00:40:09;;;;;;;55.40;30.63;;;;;;;6.62;65.12;101780.33;126291;1099;104564;-78
2021/11/07 00:42:48;;;;;;;61.33;32.80;;;;;;;6.51;65.17;101770.80;126314;1099;104178;-79
2021/11/07 00:45:29;;;;;;;59.60;31.90;;;;;;;6.41;65.34;101771.84;126312;1099;104153;-79
2021/11/07 00:48:12;;;;;;;64.80;33.47;;;;;;;6.42;65.53;101775.34;126334;1098;104329;-78
2021/11/07 00:50:51;;;;;;;59.83;31.97;;;;;;;6.41;65.43;101769.23;126224;1099;104220;-79
2021/11/07 00:53:38;;;;;;;62.57;32.63;;;;;;;6.39;65.42;101770.83;126340;1099;104134;-78
2021/11/07 00:56:17;;;;;;;57.37;31.10;;;;;;;6.44;65.41;101779.89;126337;1099;104217;-79
2021/11/07 00:59:00;;;;;;;59.97;32.53;;;;;;;6.49;65.71;101780.22;126339;1099;104168;-78
2021/11/07 01:01:36;;;;;;;57.03;31.50;;;;;;;6.56;65.66;101769.45;126265;1099;119310;-78
2021/11/07 01:04:11;;;;;;;61.23;30.77;;;;;;;6.60;65.75;101763.63;126312;1099;104168;-78
2021/11/07 01:06:41;;;;;;;;;;;;;;;6.56;65.51;101758.09;126364;1099;104224;-79
2021/11/07 01:09:14;;;;;;;58.33;30.63;;;;;;;6.50;65.62;101747.22;126347;1099;104289;-78
2021/11/07 01:11:45;;;;;;;57.50;30.40;;;;;;;6.44;65.59;101753.81;126246;1099;104256;-78
2021/11/07 01:14:17;;;;;;;58.30;31.97;;;;;;;6.38;65.52;101758.58;126308;1099;105380;-78
2021/11/07 01:16:47;;;;;;;63.73;32.13;;;;;;;6.40;66.01;101758.69;126291;1099;104303;-78
2021/11/07 01:19:18;;;;;;;61.30;31.97;;;;;;;6.41;65.95;101740.55;126338;1099;104149;-78
2021/11/07 01:21:49;;;;;;;62.03;30.80;;;;;;;6.39;65.80;101742.15;126258;1099;104251;-79
2021/11/07 01:24:23;;;;;;;56.60;30.33;;;;;;;6.45;65.77;101741.67;125996;1099;104140;-79
2021/11/07 01:27:05;;;;;;;55.70;31.15;;;;;;;6.41;65.68;101745.77;126288;1099;104168;-78
2021/11/07 01:29:40;;;;;;;62.13;32.07;;;;;;;6.37;65.73;101740.22;126295;1099;104755;-79
2021/11/07 01:32:11;;;;;;;66.27;31.60;;;;;;;6.39;66.02;101731.72;126251;1099;104216;-79
2021/11/07 01:34:52;;;;;;;62.87;32.40;;;;;;;6.44;65.81;101737.27;126295;1099;104175;-79
2021/11/07 01:37:26;;;;;;;63.63;33.17;;;;;;;6.44;65.94;101738.16;126336;1099;104168;-78
2021/11/07 01:40:07;;;;;;;59.40;31.87;;;;;;;6.48;66.17;101729.78;126252;1099;104187;-78
2021/11/07 01:42:42;;;;;;;58.83;32.67;;;;;;;6.52;66.10;101730.00;126245;1099;108209;-79
2021/11/07 01:45:23;;;;;;;64.43;33.33;;;;;;;6.48;66.05;101719.34;126282;1099;104181;-79
2021/11/07 01:48:01;;;;;;;58.77;31.33;;;;;;;6.37;66.09;101728.08;126313;1099;104181;-78
2021/11/07 01:50:35;;;;;;;58.07;30.77;;;;;;;6.19;65.80;101724.16;126292;1098;104191;-79
2021/11/07 01:53:10;;;;;;;57.27;30.02;;;;;;;6.06;66.11;101730.16;126301;1099;118922;-79
2021/11/07 01:55:40;;;;;;;63.73;32.17;;;;;;;5.97;66.18;101725.19;126301;1099;104165;-78
2021/11/07 01:58:11;;;;;;;58.07;30.87;;;;;;;5.98;66.20;101707.84;126315;1099;104242;-79
2021/11/07 02:00:43;;;;;;;54.97;30.33;;;;;;;6.01;66.12;101724.60;126266;1099;104272;-78
2021/11/07 02:03:15;;;;;;;61.17;31.50;;;;;;;6.02;66.09;101725.53;126331;1099;104264;-78
2021/11/07 02:05:46;;;;;;;60.00;31.37;;;;;;;6.00;66.32;101730.62;126275;1099;104320;-78
2021/11/07 02:08:18;;;;;;;57.33;30.03;;;;;;;6.00;66.39;101722.81;126288;1099;104271;-79
2021/11/07 02:10:50;;;;;;;60.13;31.30;;;;;;;5.99;66.41;101714.88;126335;1099;104220;-78
2021/11/07 02:13:22;;;;;;;60.63;32.10;;;;;;;5.92;66.06;101713.47;126272;1099;110307;-78
2021/11/07 02:15:55;;;;;;;67.23;34.10;;;;;;;5.86;66.45;101713.94;126327;1099;104315;-78
2021/11/07 02:18:26;;;;;;;62.75;33.10;;;;;;;5.78;66.42;101716.75;126323;1098;104277;-78
2021/11/07 02:20:57;;;;;;;64.77;32.07;;;;;;;5.69;66.51;101730.02;126328;1099;104380;-79
2021/11/07 02:23:28;;;;;;;62.93;32.03;;;;;;;5.62;66.76;101730.34;125380;1099;104236;-79
2021/11/07 02:26:03;;;;;;;56.70;31.10;;;;;;;5.61;67.02;101726.84;126284;1099;104203;-78
2021/11/07 02:28:37;;;;;;;58.57;31.07;;;;;;;5.58;66.93;101722.30;126371;1099;104251;-78
2021/11/07 02:31:11;;;;;;;54.80;30.45;;;;;;;5.53;66.83;101727.93;126331;1099;104194;-78
2021/11/07 02:33:42;;;;;;;54.40;29.80;;;;;;;5.46;66.96;101705.75;126248;1099;104194;-78
2021/11/07 02:36:16;;;;;;;57.37;32.40;;;;;;;5.38;67.19;101697.35;126303;1099;104239;-78
2021/11/07 02:38:49;;;;;;;61.80;31.60;;;;;;;5.33;67.25;101698.71;126314;1099;104309;-78
2021/11/07 02:41:19;;;;;;;61.80;32.40;;;;;;;5.30;67.23;101693.27;126316;1099;104254;-78
2021/11/07 02:43:52;;;;;;;56.63;30.37;;;;;;;5.29;66.86;101690.55;126222;1099;104159;-78
2021/11/07 02:46:24;;;;;;;56.07;30.17;;;;;;;5.25;67.17;101689.42;126279;1099;104184;-78
2021/11/07 02:48:57;;;;;;;58.97;31.23;;;;;;;5.20;67.38;101688.14;126327;1099;104149;-78
2021/11/07 02:51:31;;;;;;;60.55;30.88;;;;;;;5.18;67.00;101687.13;126332;1099;104576;-78
2021/11/07 02:54:05;;;;;;;60.60;29.93;;;;;;;5.17;67.02;101677.50;126304;1099;104207;-79
2021/11/07 02:56:36;;;;;;;57.93;29.63;;;;;;;5.21;67.26;101682.16;126315;1099;104195;-79
2021/11/07 02:59:09;;;;;;;57.73;29.83;;;;;;;5.22;67.48;101689.19;126313;1099;104377;-79
2021/11/07 03:01:39;;;;;;;56.93;28.70;;;;;;;5.21;67.54;101695.17;126302;1099;104160;-78
2021/11/07 03:04:10;;;;;;;54.45;28.75;;;;;;;5.24;67.54;101698.01;126263;1099;104293;-79
2021/11/07 03:06:42;;;;;;;52.60;28.10;;;;;;;5.23;67.57;101711.80;126330;1099;104178;-79
2021/11/07 03:09:19;;;;;;;56.43;28.87;;;;;;;5.18;67.58;101702.75;126301;1099;104145;-78
2021/11/07 03:11:52;;;;;;;56.17;28.17;;;;;;;5.11;67.86;101692.64;126299;1099;104220;-78
2021/11/07 03:14:26;;;;;;;58.93;30.93;;;;;;;5.07;67.88;101683.70;126277;1099;104248;-79
2021/11/07 03:16:58;;;;;;;53.50;29.32;;;;;;;5.02;67.81;101672.95;126296;1099;104173;-79
2021/11/07 03:19:31;;;;;;;53.60;28.23;;;;;;;5.01;68.02;101680.63;126350;1099;104255;-79
2021/11/07 03:22:06;;;;;;;54.00;26.80;;;;;;;5.01;67.40;101678.93;126301;1099;104152;-79
2021/11/07 03:24:38;;;;;;;53.87;27.33;;;;;;;5.02;67.71;101669.45;125330;1099;104177;-79
2021/11/07 03:27:14;;;;;;;56.13;28.10;;;;;;;5.11;67.84;101661.42;126323;1099;104347;-79
2021/11/07 03:29:48;;;;;;;59.20;29.90;;;;;;;5.19;67.93;101668.14;126299;1099;104261;-78
2021/11/07 03:32:21;;;;;;;56.10;30.13;;;;;;;5.26;68.06;101653.88;126286;1099;104210;-79
2021/11/07 03:34:55;;;;;;;57.67;30.27;;;;;;;5.33;68.55;101656.14;126269;1099;104195;-79
2021/11/07 03:37:29;;;;;;;55.38;30.12;;;;;;;5.41;67.87;101660.25;126313;1099;104258;-78
2021/11/07 03:40:03;;;;;;;56.70;29.90;;;;;;;5.47;68.17;101664.98;126330;1099;104258;-78
2021/11/07 03:42:33;;;;;;;52.40;29.15;;;;;;;5.50;68.42;101655.73;126320;1099;104252;-79
2021/11/07 03:45:07;;;;;;;56.40;29.47;;;;;;;5.55;68.21;101653.47;126281;1099;104219;-79
2021/11/07 03:47:38;;;;;;;56.28;29.55;;;;;;;5.55;68.35;101662.17;126305;1099;104175;-79
2021/11/07 03:50:09;;;;;;;57.03;29.17;;;;;;;5.56;68.27;101668.28;126246;1097;104303;-78
2021/11/07 03:52:40;;;;;;;55.60;28.43;;;;;;;5.55;68.14;101662.17;126283;1099;104168;-79
2021/11/07 03:55:11;;;;;;;54.13;28.53;;;;;;;5.53;67.99;101644.62;126216;1099;104175;-79
2021/11/07 03:57:42;;;;;;;55.30;26.93;;;;;;;5.52;68.35;101642.83;126337;1099;104281;-78
2021/11/07 04:00:16;;;;;;;49.70;26.53;;;;;;;5.49;68.39;101637.39;126277;1099;104280;-78
2021/11/07 04:02:47;;;;;;;55.70;29.20;;;;;;;5.41;67.94;101639.42;126257;1099;104169;-78
2021/11/07 04:05:18;;;;;;;52.43;28.97;;;;;;;5.38;68.43;101645.30;126283;1099;103746;-78
2021/11/07 04:07:49;;;;;;;57.67;27.70;;;;;;;5.36;68.38;101657.30;126298;1099;104255;-78
2021/11/07 04:10:21;;;;;;;54.30;28.33;;;;;;;5.28;68.31;101666.20;126308;1099;104194;-79
2021/11/07 04:12:52;;;;;;;54.83;27.53;;;;;;;5.21;68.53;101659.64;126303;1099;104272;-79
2021/11/07 04:15:23;;;;;;;54.73;28.37;;;;;;;5.16;68.33;101667.91;126261;1098;104201;-79
2021/11/07 04:17:54;;;;;;;55.10;27.07;;;;;;;5.07;68.12;101667.20;126314;1099;104159;-78
2021/11/07 04:20:25;;;;;;;56.77;27.00;;;;;;;5.00;68.36;101653.72;126288;1099;104242;-78
2021/11/07 04:22:56;;;;;;;54.90;26.77;;;;;;;5.00;68.37;101660.59;126274;1099;104159;-78
2021/11/07 04:25:26;;;;;;;56.20;28.63;;;;;;;5.07;68.70;101643.78;126301;1099;104868;-78
2021/11/07 04:27:57;;;;;;;54.93;28.63;;;;;;;5.16;68.33;101641.89;126295;1099;104143;-79
2021/11/07 04:30:28;;;;;;;55.53;29.03;;;;;;;5.21;68.41;101643.13;126302;1099;104181;-78
2021/11/07 04:32:59;;;;;;;55.80;29.07;;;;;;;5.25;68.30;101639.98;126331;1099;104168;-79
2021/11/07 04:35:29;;;;;;;59.37;31.37;;;;;;;5.27;68.74;101640.98;126147;1099;104233;-79
2021/11/07 04:38:03;;;;;;;56.80;29.45;;;;;;;5.27;68.86;101633.19;126310;1099;104178;-78
2021/11/07 04:40:33;;;;;;;;;;;;;;;5.25;68.66;101637.37;126325;1099;104149;-78
2021/11/07 04:43:04;;;;;;;55.70;28.25;;;;;;;5.23;68.64;101628.52;126328;1099;104185;-79
2021/11/07 04:45:34;;;;;;;58.80;29.07;;;;;;;5.21;68.90;101619.70;126252;1099;104191;-78
2021/11/07 04:48:06;;;;;;;54.80;27.93;;;;;;;5.21;69.08;101609.30;126314;1099;104150;-78
2021/11/07 04:50:41;;;;;;;56.40;26.23;;;;;;;5.25;68.70;101616.56;126352;1097;104360;-78
2021/11/07 04:53:15;;;;;;;53.47;25.87;;;;;;;5.27;68.64;101616.67;126249;1099;104296;-78
2021/11/07 04:55:47;;;;;;;56.20;25.93;;;;;;;5.29;68.72;101608.16;126282;1099;104165;-79
2021/11/07 04:58:18;;;;;;;54.07;27.90;;;;;;;5.37;69.04;101607.03;126302;1099;104293;-78
2021/11/07 05:00:51;;;;;;;56.23;28.13;;;;;;;5.46;68.79;101616.34;126295;1099;104239;-78
2021/11/07 05:03:22;;;;;;;53.25;28.05;;;;;;;5.52;68.62;101606.37;126360;1099;104258;-79
2021/11/07 05:05:52;;;;;;;51.70;28.23;;;;;;;5.58;69.23;101602.52;126260;1098;104287;-79
2021/11/07 05:08:23;;;;;;;55.70;29.13;;;;;;;5.65;68.75;101596.05;126296;1099;104258;-79
2021/11/07 05:10:54;;;;;;;55.40;28.70;;;;;;;5.74;68.84;101595.83;126341;1099;104181;-79
2021/11/07 05:13:24;;;;;;;60.70;31.30;;;;;;;5.81;69.14;101599.77;126270;1099;104200;-80
2021/11/07 05:15:56;;;;;;;55.10;30.03;;;;;;;5.85;68.79;101594.89;126244;1099;104296;-79
2021/11/07 05:18:27;;;;;;;61.27;30.73;;;;;;;5.87;68.67;101606.32;126205;1099;104146;-79
2021/11/07 05:20:58;;;;;;;65.00;29.80;;;;;;;5.90;69.07;101613.46;126318;1097;104477;-79
2021/11/07 05:23:29;;;;;;;57.33;28.50;;;;;;;5.96;68.99;101619.12;126325;1099;105031;-79
2021/11/07 05:26:00;;;;;;;55.60;29.70;;;;;;;6.04;69.06;101606.67;126279;1099;104149;-79
2021/11/07 05:28:32;;;;;;;61.50;29.03;;;;;;;6.07;68.81;101607.79;126290;1099;104336;-79
2021/11/07 05:31:04;;;;;;;59.50;30.63;;;;;;;6.06;68.89;101602.47;126327;1099;104235;-79
2021/11/07 05:33:35;;;;;;;55.90;30.80;;;;;;;6.09;68.83;101597.48;126273;1099;104322;-79
2021/11/07 05:36:07;;;;;;;60.90;31.53;;;;;;;6.16;69.16;101602.34;126260;1099;104242;-79
2021/11/07 05:38:37;;;;;;;56.53;29.23;;;;;;;6.18;68.98;101612.87;126244;1099;104226;-78
2021/11/07 05:41:09;;;;;;;50.30;28.50;;;;;;;6.12;68.98;101613.33;126330;1098;104188;-79
2021/11/07 05:43:41;;;;;;;55.67;29.17;;;;;;;6.09;69.07;101621.86;126233;1099;104569;-79
2021/11/07 05:46:12;;;;;;;55.33;29.17;;;;;;;6.09;68.90;101614.04;126255;1099;104232;-79
2021/11/07 05:48:42;;;;;;;53.87;28.80;;;;;;;6.14;68.95;101603.02;126307;1099;104245;-78
2021/11/07 05:51:14;;;;;;;56.63;29.77;;;;;;;6.21;69.18;101597.45;126363;1099;104248;-79
2021/11/07 05:53:45;;;;;;;59.15;29.40;;;;;;;6.21;68.96;101615.70;126288;1099;104178;-78
2021/11/07 05:56:15;;;;;;;61.57;32.73;;;;;;;6.20;69.05;101613.88;126165;1099;104258;-79
2021/11/07 05:58:46;;;;;;;60.40;32.30;;;;;;;6.26;68.94;101607.42;126356;1099;104294;-78
2021/11/07 06:01:16;;;;;;;61.50;32.77;;;;;;;6.32;68.93;101606.93;126231;1098;104281;-79
2021/11/07 06:03:47;;;;;;;67.53;34.67;;;;;;;6.37;68.61;101607.25;126333;1099;104169;-78
2021/11/07 06:09:19;;;;;;;69.25;35.65;;;;;;;6.51;69.03;101603.91;126192;1099;104197;-78
2021/11/07 06:11:55;;;;;;;70.00;35.20;;;;;;;6.56;69.30;101601.61;126298;1099;104634;-79
2021/11/07 06:14:26;;;;;;;66.83;36.90;;;;;;;6.58;69.08;101603.55;126341;1099;104325;-79
2021/11/07 06:16:56;;;;;;;69.57;37.50;;;;;;;6.66;68.88;101589.31;126276;1099;104146;-78
2021/11/07 06:19:27;;;;;;;66.83;38.03;;;;;;;6.77;69.14;101597.88;126252;1098;104352;-79
2021/11/07 06:21:58;;;;;;;67.63;38.70;;;;;;;6.87;69.02;101599.41;126258;1098;104239;-79
2021/11/07 06:24:29;;;;;;;73.53;39.73;;;;;;;6.94;69.18;101601.64;126330;1099;104145;-79
2021/11/07 06:27:02;;;;;;;73.00;38.90;;;;;;;7.05;69.07;101598.88;126269;1099;104258;-78
2021/11/07 06:29:33;;;;;;;70.23;39.40;;;;;;;7.14;69.08;101595.16;126349;1099;105437;-78
2021/11/07 06:32:03;;;;;;;70.97;40.63;;;;;;;7.23;69.12;101593.96;126341;1099;104983;-79
2021/11/07 06:34:36;;;;;;;74.27;40.47;;;;;;;7.19;68.54;101592.86;126278;1099;104191;-79
2021/11/07 06:37:08;;;;;;;70.97;38.60;;;;;;;7.22;68.73;101606.13;126242;1099;104261;-79
2021/11/07 06:39:40;;;;;;;67.73;36.97;;;;;;;7.26;69.16;101612.44;126297;1099;104274;-78
2021/11/07 06:42:12;;;;;;;70.67;37.47;;;;;;;7.32;68.87;101615.46;126346;1099;104147;-79
2021/11/07 06:44:43;;;;;;;66.33;37.27;;;;;;;7.41;68.77;101610.85;126351;1099;104188;-79
2021/11/07 06:47:14;;;;;;;58.57;35.17;;;;;;;7.47;68.67;101611.25;126235;1099;104310;-78
2021/11/07 06:49:49;;;;;;;61.83;34.70;;;;;;;7.55;68.52;101599.59;126305;1098;104258;-79
2021/11/07 06:52:19;;;;;;;58.63;33.90;;;;;;;7.59;69.13;101602.41;126300;1099;104139;-78
2021/11/07 06:54:52;;;;;;;66.57;35.37;;;;;;;7.63;68.46;101597.48;126295;1099;104188;-79
2021/11/07 06:57:23;;;;;;;65.67;37.63;;;;;;;7.63;68.61;101592.26;126259;1099;104171;-78
2021/11/07 06:59:54;;;;;;;68.03;38.67;;;;;;;7.65;68.70;101580.23;126250;1099;104280;-78
2021/11/07 07:02:26;;;;;;;68.83;39.47;;;;;;;7.70;68.96;101572.69;126262;1098;104150;-78
2021/11/07 07:04:57;;;;;;;63.90;35.97;;;;;;;7.74;68.25;101572.06;126259;1099;104178;-79
2021/11/07 07:07:29;;;;;;;63.75;35.65;;;;;;;7.77;68.83;101564.41;126246;1099;104198;-79
2021/11/07 07:10:01;;;;;;;62.97;33.63;;;;;;;7.85;68.13;101568.45;126294;1099;104384;-79
2021/11/07 07:12:38;;;;;;;61.60;33.23;;;;;;;7.94;68.13;101573.33;126323;1099;104396;-80
2021/11/07 07:15:13;;;;;;;57.30;33.30;;;;;;;7.97;68.33;101570.91;126353;1099;105350;-79
2021/11/07 07:17:50;;;;;;;59.27;34.63;;;;;;;8.01;68.71;101569.38;126297;1099;104245;-78
2021/11/07 07:20:40;;;;;;;55.87;33.50;;;;;;;8.07;68.47;101570.70;126333;1099;104160;-79
2021/11/07 07:23:30;;;;;;;55.43;32.00;;;;;;;8.14;68.14;101574.59;126274;1099;104223;-79
2021/11/07 07:28:55;;;;;;;56.30;32.03;;;;;;;8.23;67.90;101542.90;126257;1099;104246;-78
2021/11/07 07:31:33;;;;;;;50.80;30.17;;;;;;;8.27;68.62;101542.26;126279;1099;104483;-79
2021/11/07 07:34:07;;;;;;;50.50;29.13;;;;;;;8.34;68.50;101527.88;126214;1099;104347;-78
2021/11/07 07:36:38;;;;;;;56.35;29.25;;;;;;;8.40;67.83;101526.52;126184;1099;104312;-77
2021/11/07 07:39:09;;;;;;;52.90;28.73;;;;;;;8.49;68.22;101528.81;126180;1099;104198;-78
2021/11/07 07:41:40;;;;;;;50.63;27.17;;;;;;;8.56;68.26;101515.30;126214;1099;104586;-78
2021/11/07 07:44:12;;;;;;;52.73;27.77;;;;;;;8.63;68.01;101512.25;126115;1099;104213;-77
2021/11/07 07:46:45;;;;;;;51.00;27.05;;;;;;;8.71;67.74;101503.94;126199;1099;104175;-78
2021/11/07 07:49:19;;;;;;;47.98;28.00;;;;;;;8.73;68.21;101495.38;126241;1099;104618;-78
2021/11/07 07:51:51;;;;;;;48.90;26.63;;;;;;;8.81;68.14;101499.33;126236;1099;104197;-78
2021/11/07 07:54:25;;;;;;;48.50;26.10;;;;;;;8.87;67.61;101495.30;126337;1098;104147;-79
2021/11/07 07:56:59;;;;;;;47.03;26.47;;;;;;;8.91;67.28;101498.18;126258;1099;104169;-79
2021/11/07 07:59:31;;;;;;;49.47;25.87;;;;;;;8.96;67.30;101501.03;126248;1099;104172;-79
2021/11/07 08:02:02;;;;;;;46.40;25.87;;;;;;;8.99;67.74;101491.66;126327;1098;104201;-79
2021/11/07 08:04:32;;;;;;;48.13;26.47;;;;;;;9.06;67.83;101497.26;126240;1099;104245;-78
2021/11/07 08:07:04;;;;;;;49.80;26.83;;;;;;;9.09;67.52;101500.05;126236;1099;104159;-78
2021/11/07 08:09:35;;;;;;;49.00;26.00;;;;;;;9.12;67.16;101503.73;126156;1099;104149;-78
2021/11/07 08:12:07;;;;;;;44.13;24.80;;;;;;;9.11;67.75;101506.27;126298;1099;104162;-79
2021/11/07 08:14:38;;;;;;;47.37;25.13;;;;;;;9.13;67.14;101510.80;126262;1099;104270;-77
2021/11/07 08:17:09;;;;;;;46.97;25.93;;;;;;;9.15;67.50;101510.88;126232;1099;104143;-78
2021/11/07 08:19:39;;;;;;;43.10;24.87;;;;;;;9.18;67.62;101493.62;126227;1099;104134;-79
2021/11/07 08:22:10;;;;;;;46.80;26.00;;;;;;;9.19;66.60;101484.03;126168;1099;104163;-79
2021/11/07 08:24:43;;;;;;;43.45;25.65;;;;;;;9.23;66.90;101472.04;126316;1099;104168;-78
2021/11/07 08:27:16;;;;;;;43.30;23.20;;;;;;;9.28;67.27;101450.51;126292;1099;104153;-78
2021/11/07 08:29:52;;;;;;;43.80;23.40;;;;;;;9.38;66.54;101451.95;126241;1099;104205;-79
2021/11/07 08:32:23;;;;;;;45.55;22.70;;;;;;;9.50;66.67;101439.50;126355;1099;104181;-78
2021/11/07 08:34:54;;;;;;;37.57;20.83;;;;;;;9.63;67.15;101416.59;126329;1099;104165;-78
2021/11/07 08:37:31;;;;;;;35.40;18.35;;;;;;;9.76;66.48;101405.06;126328;1099;104242;-78
2021/11/07 08:40:05;;;;;;;32.80;17.33;;;;;;;9.91;66.48;101411.12;126270;1098;104178;-78
2021/11/07 08:42:39;;;;;;;33.40;18.47;;;;;;;10.09;66.32;101421.66;126336;1099;104364;-78
2021/11/07 09:01:29;;;;;;;30.23;15.17;;;;;;;10.66;65.70;101418.44;126370;1099;110516;-78
2021/11/07 09:04:16;;;;;;;29.30;15.37;;;;;;;10.68;65.20;101412.45;126385;1099;104173;-78
2021/11/07 09:07:00;;;;;;;32.60;15.13;;;;;;;10.71;65.10;101404.73;126325;1099;104147;-77
2021/11/07 09:09:37;;;;;;;;;;;;;;;10.69;63.79;101398.52;126268;1099;104155;-79
2021/11/07 09:12:09;;;;;;;27.17;12.87;;;;;;;10.77;64.29;101391.91;126321;1099;104146;-77
2021/11/07 09:14:42;;;;;;;24.60;12.73;;;;;;;10.87;64.12;101389.73;126332;1099;104149;-77
2021/11/07 09:17:15;;;;;;;26.83;14.10;;;;;;;10.92;64.26;101378.64;126351;1099;104252;-78
2021/11/07 09:19:49;;;;;;;26.57;13.00;;;;;;;10.93;63.57;101375.17;126252;1099;104188;-78
2021/11/07 09:22:31;;;;;;;27.80;13.20;;;;;;;10.92;63.90;101378.64;126298;1099;104313;-78
2021/11/07 09:25:08;;;;;;;27.67;13.47;;;;;;;10.95;63.34;101377.87;126336;1099;104149;-78
2021/11/07 09:27:43;;;;;;;26.87;12.90;;;;;;;11.01;63.77;101378.16;126351;1099;104672;-78
2021/11/07 09:30:21;;;;;;;23.37;12.67;;;;;;;11.05;63.16;101361.73;126270;1097;104191;-78
2021/11/07 09:32:59;;;;;;;24.77;12.50;;;;;;;11.09;63.12;101355.78;126324;1099;104325;-79
2021/11/07 09:35:41;;;;;;;26.30;13.50;;;;;;;11.14;63.32;101346.41;126283;1099;104252;-79
2021/11/07 09:38:16;;;;;;;26.30;13.43;;;;;;;11.18;63.04;101342.19;126347;1099;104144;-78
2021/11/07 09:40:58;;;;;;;25.03;13.53;;;;;;;11.20;63.03;101327.39;126267;1099;104220;-79
2021/11/07 09:43:41;;;;;;;25.07;13.30;;;;;;;11.27;63.38;101318.09;126346;1098;104174;-78
2021/11/07 09:46:20;;;;;;;23.63;12.33;;;;;;;11.34;63.00;101314.89;126329;1099;104140;-77
2021/11/07 09:48:55;;;;;;;27.33;12.87;;;;;;;11.41;62.59;101311.72;126335;1099;104140;-78
2021/11/07 09:51:32;;;;;;;25.27;13.33;;;;;;;11.46;62.28;101311.94;126248;1099;104137;-77
2021/11/07 09:54:04;;;;;;;25.27;12.50;;;;;;;11.51;62.52;101313.95;126307;1099;104198;-77
2021/11/07 09:56:36;;;;;;;26.90;13.03;;;;;;;11.56;62.11;101313.23;126354;1099;104178;-78
2021/11/07 09:59:07;;;;;;;24.10;11.67;;;;;;;11.62;62.45;101314.39;126340;1099;104278;-77
2021/11/07 10:01:38;;;;;;;28.30;12.53;;;;;;;11.64;62.29;101310.12;126267;1098;104188;-77
2021/11/07 10:04:09;;;;;;;24.47;12.53;;;;;;;11.62;61.55;101292.48;126354;1098;104223;-78
2021/11/07 10:06:45;;;;;;;25.63;11.87;;;;;;;11.63;61.50;101265.38;126321;1099;104150;-77
2021/11/07 10:09:33;;;;;;;23.83;11.50;;;;;;;11.63;61.25;101249.59;126365;1099;104150;-78
2021/11/07 10:12:09;;;;;;;22.83;12.17;;;;;;;11.65;61.43;101229.52;126293;1099;105405;-78
2021/11/07 10:14:48;;;;;;;22.80;11.87;;;;;;;11.69;61.46;101224.46;126256;1099;104310;-78
2021/11/07 10:17:36;;;;;;;24.10;11.30;;;;;;;11.71;61.29;101205.23;126354;1099;104181;-78
2021/11/07 10:20:18;;;;;;;24.90;11.80;;;;;;;11.72;60.87;101204.38;126308;1099;104168;-79
2021/11/07 10:22:53;;;;;;;21.53;11.50;;;;;;;11.74;61.05;101203.63;126310;1099;104149;-78
2021/11/07 10:25:29;;;;;;;23.90;12.30;;;;;;;11.68;60.75;101203.36;126347;1099;104275;-77
2021/11/07 10:28:01;;;;;;;25.20;12.50;;;;;;;11.62;60.79;101200.47;126316;1099;104174;-78
2021/11/07 10:30:32;;;;;;;23.70;12.27;;;;;;;11.56;60.48;101181.81;126317;1099;104605;-78
2021/11/07 10:33:08;;;;;;;22.37;11.77;;;;;;;11.53;60.52;101201.00;126271;1099;104203;-78
2021/11/07 10:41:34;;;;;;;21.17;11.23;;;;;;;11.60;60.62;101173.23;126208;1099;104460;-79
2021/11/07 10:44:28;;;;;;;21.20;10.27;;;;;;;11.62;60.06;101171.56;126342;1099;104146;-77
2021/11/07 10:47:22;;;;;;;21.63;11.47;;;;;;;11.59;60.15;101167.06;126328;1099;104778;-77
2021/11/07 10:52:41;;;;;;;25.27;12.83;;;;;;;11.59;59.78;101134.63;125872;1099;104140;-78
2021/11/07 10:55:21;;;;;;;24.37;11.70;;;;;;;11.61;60.03;101125.98;126277;1099;105482;-77
2021/11/07 10:57:55;;;;;;;26.10;12.63;;;;;;;11.64;59.85;101131.38;126314;1099;104158;-77
2021/11/07 11:00:29;;;;;;;25.92;13.40;;;;;;;11.66;59.77;101134.06;126332;1099;104146;-77
2021/11/07 11:03:03;;;;;;;25.47;12.27;;;;;;;11.75;59.75;101129.19;126233;1099;104251;-77
2021/11/07 11:05:41;;;;;;;24.73;11.37;;;;;;;11.84;59.61;101124.30;126356;1097;104161;-78
2021/11/07 11:08:17;;;;;;;24.27;12.07;;;;;;;11.95;59.77;101101.10;125321;1099;103957;-77
2021/11/07 11:11:00;;;;;;;21.50;11.00;;;;;;;12.04;59.53;101080.42;126351;1099;104261;-77
2021/11/07 11:13:38;;;;;;;25.80;11.53;;;;;;;12.07;59.20;101068.22;126265;1099;104156;-76
2021/11/07 11:30:21;;;;;;;26.07;11.57;;;;;;;12.40;58.59;101068.58;126316;1099;104272;-77
2021/11/07 11:32:56;;;;;;;23.17;11.57;;;;;;;12.45;58.90;101074.02;126271;1099;104395;-77
2021/11/07 11:35:31;;;;;;;22.73;11.23;;;;;;;12.47;58.30;101069.73;126277;1099;104427;-76
2021/11/07 11:38:10;;;;;;;20.77;10.60;;;;;;;12.55;58.89;101047.20;126289;1099;104204;-78
2021/11/07 11:43:31;;;;;;;19.20;9.63;;;;;;;12.71;58.46;101019.69;126326;1099;104147;-78
2021/11/07 11:46:10;;;;;;;20.37;9.67;;;;;;;12.74;57.28;100990.83;126309;1099;104243;-77
2021/11/07 11:57:23;;;;;;;21.30;10.40;;;;;;;12.86;57.35;100990.37;126356;1099;104213;-79
2021/11/07 12:00:05;;;;;;;20.97;10.03;;;;;;;12.88;57.18;100984.28;126352;1099;104294;-76
2021/11/07 12:02:50;;;;;;;23.73;10.17;;;;;;;12.92;57.43;100986.20;126324;1099;104143;-78
2021/11/07 12:05:33;;;;;;;19.53;9.07;;;;;;;12.91;55.84;100965.95;126293;1099;104272;-77
2021/11/07 12:08:25;;;;;;;19.80;9.47;;;;;;;12.90;57.10;100961.55;126351;1099;104136;-79
2021/11/07 12:11:19;;;;;;;20.27;9.27;;;;;;;12.87;57.05;100960.53;126358;1099;104201;-79
2021/11/07 12:14:02;;;;;;;22.70;9.60;;;;;;;12.83;56.90;100945.49;126305;1098;104245;-77
2021/11/07 12:16:49;;;;;;;20.07;8.93;;;;;;;12.81;56.42;100928.72;126281;1099;104140;-79
2021/11/07 12:19:29;;;;;;;21.13;9.57;;;;;;;12.81;56.89;100928.72;126357;1099;104213;-79
2021/11/07 12:22:08;;;;;;;21.37;10.93;;;;;;;12.85;56.77;100934.14;126329;1099;104149;-78
2021/11/07 12:24:57;;;;;;;19.40;9.40;;;;;;;12.92;56.95;100945.80;126284;1099;104637;-79
2021/11/07 12:27:34;;;;;;;18.67;8.90;;;;;;;13.00;56.74;100949.58;126337;1099;104174;-78
2021/11/07 12:30:22;;;;;;;18.73;8.40;;;;;;;13.06;56.67;100931.33;126285;1099;104299;-77
2021/11/07 12:33:04;;;;;;;22.23;9.67;;;;;;;13.11;55.71;100919.20;126371;1099;104302;-78